Bancroft, IA (50517)

8:08 PM CDT on August 31, 2016 (GMT -0500)
Middle Of Nowhere | | Change Station

Elev 1135 ft 43.43 °N, 94.21 °W | Updated 2 seconds ago

Clear
Clear
68.0 °F
Feels Like 68.0 °F
N
3.7
Wind Variable Wind from WSW

Today
High -- | Low -- °F
--% Chance of Precip.
Yesterday
High -- | Low -- °F
Precip. -- in
Pressure 30.17 in
Visibility 10.0 miles
Clouds Clear
Dew Point 63 °F
Humidity 85%
Rainfall 0.56 in
Snow Depth Not available.
6:40 AM 7:52 PM
Waning Crescent, 0% visible
METAR KAXA 010055Z AUTO 36004KT 10SM CLR 21/16 A3017 RMK AO2
Pressure 30.17 in
Visibility 10.0 miles
Clouds Clear
Dew Point 63 °F
Humidity 85%
Rainfall 0.56 in
Snow Depth Not available.
6:40 AM 7:52 PM
Waning Crescent, 0% visible
METAR KAXA 010055Z AUTO 36004KT 10SM CLR 21/16 A3017 RMK AO2

10-Day Weather Forecast

Almanac

Astronomy

Aug. 31, 2016 Rise Set
Actual Time
Civil Twilight
Nautical Twilight
Astronomical Twilight
Moon
Length of Visible Light
Length of Day
Tomorrow will be .
, % of the Moon is Illuminated

Today's Extremes

State Highs State Lows

Community

WunderPhotos

Upload Photos

1,936,256 photos uploaded!

WunderBlog® & News

Nearby

Air Quality

  Air Quality AQ Index Pollutant
Not available.

Snow Depth

Station Depth Elevation

Earthquake Activity

City Distance Mag. Time & Date
Minimum magnitude displayed is 2.5.

Coastal Water Temperatures

Place Temperature

Stations

Nearby Weather Stations

Station Location Temp. Windchill Dew Point Humidity Wind Precip. Elev Updated Type
                   

Watches & Warnings

There are currently no watches in effect.